createdAt,value
2024-01-06T00:00:19.392Z,17.47
2024-01-06T00:02:46.529Z,16.93
2024-01-06T00:05:13.688Z,17.27
2024-01-06T00:07:40.701Z,16.90
2024-01-06T00:10:08.492Z,16.70
2024-01-06T00:12:35.587Z,17.20
2024-01-06T00:15:03.125Z,16.93
2024-01-06T00:17:30.153Z,17.27
2024-01-06T00:19:57.354Z,17.60
2024-01-06T00:22:24.550Z,16.17
2024-01-06T00:24:51.595Z,16.77
2024-01-06T00:27:18.641Z,16.50
2024-01-06T00:29:45.600Z,16.77
2024-01-06T00:32:12.863Z,16.60
2024-01-06T00:34:39.938Z,16.17
2024-01-06T00:37:07.010Z,17.47
2024-01-06T00:39:34.080Z,17.23
2024-01-06T00:42:01.103Z,17.27
2024-01-06T00:44:28.169Z,16.97
2024-01-06T00:46:58.105Z,17.53
2024-01-06T00:49:25.233Z,18.80
2024-01-06T00:51:53.105Z,17.97
2024-01-06T00:54:20.032Z,17.80
2024-01-06T00:56:47.084Z,17.50
2024-01-06T00:59:14.076Z,18.07
2024-01-06T01:01:41.578Z,18.83
2024-01-06T01:04:08.568Z,18.07
2024-01-06T01:06:38.165Z,17.20
2024-01-06T01:09:05.546Z,17.77
2024-01-06T01:11:32.744Z,18.27
2024-01-06T01:14:02.049Z,15.97
2024-01-06T01:16:29.020Z,16.23
2024-01-06T01:18:56.064Z,16.40
2024-01-06T01:21:23.286Z,17.27
2024-01-06T01:23:50.200Z,17.17
2024-01-06T01:26:17.273Z,17.50
2024-01-06T01:28:44.268Z,17.47
2024-01-06T01:31:11.410Z,17.93
2024-01-06T01:33:38.640Z,16.43
2024-01-06T01:36:06.025Z,16.97
2024-01-06T01:38:33.120Z,18.20
2024-01-06T01:41:00.772Z,17.60
2024-01-06T01:43:29.973Z,17.50
2024-01-06T01:45:57.815Z,17.23
2024-01-06T01:48:26.667Z,17.50
2024-01-06T01:50:55.537Z,17.50
2024-01-06T01:53:25.300Z,18.73
2024-01-06T01:55:53.078Z,18.10
2024-01-06T01:58:20.266Z,17.63
2024-01-06T02:00:47.643Z,18.73
2024-01-06T02:03:39.538Z,19.53
2024-01-06T02:06:06.969Z,19.37
2024-01-06T02:08:34.008Z,20.43
2024-01-06T02:11:01.004Z,18.57
2024-01-06T02:13:35.393Z,18.83
2024-01-06T02:16:06.101Z,18.87
2024-01-06T02:18:34.167Z,18.83
2024-01-06T02:21:02.953Z,19.77
2024-01-06T02:23:30.728Z,19.70
2024-01-06T02:25:58.300Z,19.97
2024-01-06T02:28:25.235Z,19.97
2024-01-06T02:30:56.547Z,19.73
2024-01-06T02:33:25.612Z,19.33
2024-01-06T02:35:52.847Z,19.10
2024-01-06T02:38:19.769Z,19.70
2024-01-06T02:40:46.753Z,19.97
2024-01-06T02:43:13.825Z,18.37
2024-01-06T02:45:40.812Z,19.50
2024-01-06T02:48:08.291Z,18.57
2024-01-06T02:50:35.586Z,20.40
2024-01-06T02:53:02.462Z,19.20
2024-01-06T02:55:29.372Z,18.07
2024-01-06T02:57:56.395Z,19.90
2024-01-06T03:00:23.421Z,19.83
2024-01-06T03:03:43.637Z,19.43
2024-01-06T03:06:10.914Z,19.27
2024-01-06T03:08:37.957Z,20.53
2024-01-06T03:11:06.554Z,20.13
2024-01-06T03:13:33.582Z,19.87
2024-01-06T03:19:48.896Z,20.30
2024-01-06T03:22:16.113Z,20.40
2024-01-06T03:24:43.086Z,21.07
2024-01-06T03:27:10.285Z,20.47
2024-01-06T03:29:37.265Z,19.70
2024-01-06T03:32:04.448Z,20.13
2024-01-06T03:34:31.591Z,19.50
2024-01-06T03:36:58.767Z,19.30
2024-01-06T03:39:25.879Z,20.33
2024-01-06T03:41:52.795Z,21.30
2024-01-06T03:44:19.835Z,21.20
2024-01-06T03:46:46.779Z,20.87
2024-01-06T03:49:13.804Z,21.90
2024-01-06T03:51:41.040Z,20.70
2024-01-06T03:54:08.238Z,20.27
2024-01-06T03:56:35.283Z,20.70
2024-01-06T03:59:02.196Z,19.77
2024-01-06T04:01:30.085Z,20.07
2024-01-06T04:03:57.199Z,20.63
2024-01-06T04:06:24.182Z,21.03
2024-01-06T04:08:51.588Z,21.13
2024-01-06T04:11:21.261Z,20.87
2024-01-06T04:13:48.427Z,22.90
2024-01-06T04:16:15.490Z,22.13
2024-01-06T04:18:42.547Z,22.87
2024-01-06T04:21:10.136Z,22.53
2024-01-06T04:23:37.138Z,22.70
2024-01-06T04:26:05.962Z,23.00
2024-01-06T04:28:32.904Z,22.70
2024-01-06T04:31:00.007Z,23.03
2024-01-06T04:33:27.105Z,21.60
2024-01-06T04:35:54.338Z,22.13
2024-01-06T04:38:21.337Z,22.97
2024-01-06T04:40:48.360Z,23.57
2024-01-06T04:43:15.339Z,22.67
2024-01-06T04:45:42.385Z,22.50
2024-01-06T04:48:09.630Z,22.47
2024-01-06T04:50:36.853Z,21.80
2024-01-06T04:53:05.052Z,23.20
2024-01-06T04:55:32.130Z,22.20
2024-01-06T04:57:59.052Z,22.70
2024-01-06T05:00:26.890Z,22.33
2024-01-06T05:02:53.901Z,23.80
2024-01-06T05:05:21.066Z,22.60
2024-01-06T05:07:48.052Z,23.47
2024-01-06T05:10:15.015Z,22.47
2024-01-06T05:12:42.080Z,23.17
2024-01-06T05:15:10.931Z,21.90
2024-01-06T05:17:38.200Z,22.20
2024-01-06T05:20:05.900Z,22.87
2024-01-06T05:22:32.838Z,23.40
2024-01-06T05:24:59.866Z,22.37
2024-01-06T05:27:26.859Z,21.93
2024-01-06T05:29:53.876Z,22.60
2024-01-06T05:32:21.487Z,22.30
2024-01-06T05:34:50.108Z,22.63
2024-01-06T05:37:17.262Z,23.13
2024-01-06T05:39:44.211Z,22.40
2024-01-06T05:42:18.254Z,23.53
2024-01-06T05:44:45.191Z,24.00
2024-01-06T05:47:12.349Z,22.60
2024-01-06T05:49:44.836Z,21.90
2024-01-06T05:52:11.927Z,22.57
2024-01-06T05:54:43.640Z,22.63
2024-01-06T05:57:10.712Z,22.60
2024-01-06T05:59:37.641Z,22.87
2024-01-06T06:02:04.980Z,22.17
2024-01-06T06:04:32.075Z,23.67
2024-01-06T06:07:02.270Z,23.20
2024-01-06T06:09:30.171Z,23.30
2024-01-06T06:11:57.282Z,22.50
2024-01-06T06:14:27.332Z,24.00
2024-01-06T06:16:55.987Z,23.47
2024-01-06T06:19:22.968Z,23.13
2024-01-06T06:21:50.164Z,23.17
2024-01-06T06:24:17.111Z,24.67
2024-01-06T06:26:44.141Z,23.40
2024-01-06T06:29:11.088Z,24.40
2024-01-06T06:31:38.240Z,24.50
2024-01-06T06:34:08.420Z,23.03
2024-01-06T06:36:36.790Z,22.37
2024-01-06T06:39:05.383Z,22.93
2024-01-06T06:41:32.437Z,24.73
2024-01-06T06:43:59.445Z,22.87
2024-01-06T06:46:26.522Z,23.97
2024-01-06T06:48:53.486Z,24.63
2024-01-06T06:51:23.081Z,23.33
2024-01-06T06:53:53.409Z,23.03
2024-01-06T06:56:20.380Z,24.37
2024-01-06T06:58:47.442Z,24.50
2024-01-06T07:01:17.622Z,23.23
2024-01-06T07:03:44.896Z,23.50
2024-01-06T07:06:16.680Z,23.37
2024-01-06T07:08:43.862Z,24.90
2024-01-06T07:11:12.764Z,23.43
2024-01-06T07:13:40.498Z,22.30
2024-01-06T07:16:15.375Z,23.73
2024-01-06T07:18:46.675Z,23.80
2024-01-06T07:21:15.354Z,23.40
2024-01-06T07:23:43.793Z,23.67
2024-01-06T07:26:10.820Z,23.23
2024-01-06T07:28:37.734Z,23.07
2024-01-06T07:31:06.535Z,23.70
2024-01-06T07:33:33.926Z,22.50
2024-01-06T07:36:02.080Z,22.63
2024-01-06T07:38:29.362Z,23.80
2024-01-06T07:40:58.976Z,22.83
2024-01-06T07:43:25.949Z,23.20
2024-01-06T07:45:53.950Z,23.57
2024-01-06T07:48:21.127Z,22.27
2024-01-06T07:50:48.239Z,22.77
2024-01-06T07:53:15.706Z,23.20
2024-01-06T07:55:42.630Z,23.20
2024-01-06T07:58:09.835Z,22.87
2024-01-06T08:00:37.138Z,22.47
2024-01-06T08:03:07.213Z,23.00
2024-01-06T08:05:34.357Z,22.53
2024-01-06T08:08:05.285Z,22.60
2024-01-06T08:10:32.598Z,22.13
2024-01-06T08:13:00.265Z,22.30
2024-01-06T08:15:27.675Z,21.43
2024-01-06T08:17:54.727Z,21.73
2024-01-06T08:20:21.938Z,21.17
2024-01-06T08:22:49.031Z,20.73
2024-01-06T08:25:18.474Z,19.47
2024-01-06T08:27:45.814Z,19.60
2024-01-06T08:30:13.649Z,19.53
2024-01-06T08:32:40.769Z,19.13
2024-01-06T08:35:08.366Z,19.83
2024-01-06T08:37:35.273Z,18.50
2024-01-06T08:40:02.442Z,18.23
2024-01-06T08:42:29.753Z,17.60
2024-01-06T08:44:56.857Z,18.90
2024-01-06T08:47:23.806Z,18.10
2024-01-06T08:49:50.868Z,18.90
2024-01-06T08:52:20.608Z,18.17
2024-01-06T08:54:47.604Z,17.80
2024-01-06T08:57:14.648Z,18.07
2024-01-06T08:59:41.752Z,17.40
2024-01-06T09:02:08.884Z,17.57
2024-01-06T09:04:35.938Z,16.83
2024-01-06T09:07:03.041Z,16.97
2024-01-06T09:09:31.348Z,18.40
2024-01-06T09:11:58.597Z,18.10
2024-01-06T09:14:25.675Z,16.47
2024-01-06T09:16:52.581Z,15.50
2024-01-06T09:19:19.720Z,16.73
2024-01-06T09:21:46.779Z,15.27
2024-01-06T09:24:13.868Z,14.43
2024-01-06T09:26:40.867Z,14.20
2024-01-06T09:29:08.127Z,14.23
2024-01-06T09:31:35.425Z,13.30
2024-01-06T09:34:05.428Z,12.90
2024-01-06T09:36:33.268Z,12.87
2024-01-06T09:39:00.294Z,13.30
2024-01-06T09:41:27.384Z,13.67
2024-01-06T09:43:54.478Z,13.70
2024-01-06T09:46:21.554Z,13.00
2024-01-06T09:48:51.862Z,13.53
2024-01-06T09:51:20.808Z,11.83
2024-01-06T09:54:10.934Z,11.40
2024-01-06T09:56:42.212Z,11.90
2024-01-06T09:59:09.148Z,11.13
2024-01-06T10:01:36.162Z,10.87
2024-01-06T10:04:03.462Z,11.47
2024-01-06T10:06:30.654Z,11.47
2024-01-06T10:08:57.620Z,11.53
2024-01-06T10:11:24.673Z,11.00
2024-01-06T10:13:52.751Z,11.70
2024-01-06T10:16:20.730Z,9.97
2024-01-06T10:18:52.677Z,10.27
2024-01-06T10:21:23.186Z,10.00
2024-01-06T10:23:50.360Z,9.80
2024-01-06T10:26:18.983Z,9.93
2024-01-06T10:28:46.052Z,10.43
2024-01-06T10:31:13.589Z,10.67
2024-01-06T10:33:41.082Z,10.80
2024-01-06T10:36:10.016Z,11.23
2024-01-06T10:38:37.298Z,11.80
2024-01-06T10:41:09.039Z,11.60
2024-01-06T10:43:42.466Z,13.13
2024-01-06T10:46:13.111Z,15.57
2024-01-06T10:48:44.631Z,15.03
2024-01-06T10:51:13.242Z,14.37
2024-01-06T10:53:42.213Z,14.03
2024-01-06T10:56:11.630Z,18.97
2024-01-06T10:58:44.194Z,15.50
2024-01-06T11:01:13.033Z,14.90
2024-01-06T11:03:41.455Z,14.60
2024-01-06T11:06:12.187Z,15.27
2024-01-06T11:09:01.607Z,14.17
2024-01-06T11:11:29.093Z,12.57
2024-01-06T11:14:25.977Z,14.57
2024-01-06T11:16:54.096Z,16.43
2024-01-06T11:19:38.238Z,17.27
2024-01-06T11:22:25.836Z,16.60
2024-01-06T11:24:54.971Z,16.60
2024-01-06T11:27:24.596Z,16.27
2024-01-06T11:29:55.653Z,14.30
2024-01-06T11:32:31.075Z,15.97
2024-01-06T11:35:07.383Z,17.67
2024-01-06T11:37:52.316Z,16.37
2024-01-06T11:40:22.349Z,15.37
2024-01-06T11:42:57.522Z,15.23
2024-01-06T11:45:26.792Z,13.77
2024-01-06T11:48:01.381Z,12.47
2024-01-06T11:50:29.169Z,13.90
2024-01-06T11:52:56.565Z,13.23
2024-01-06T11:55:24.247Z,12.47
2024-01-06T11:57:52.501Z,12.33
2024-01-06T12:00:19.888Z,13.13
2024-01-06T12:02:46.927Z,13.30
2024-01-06T12:05:19.098Z,12.53
2024-01-06T12:08:08.996Z,13.37
2024-01-06T12:10:37.033Z,13.27
2024-01-06T12:13:12.249Z,12.70
2024-01-06T12:15:40.956Z,11.93
2024-01-06T12:18:08.768Z,11.73
2024-01-06T12:20:35.949Z,12.67
2024-01-06T12:23:07.271Z,12.60
2024-01-06T12:25:40.189Z,12.50
2024-01-06T12:28:08.606Z,11.03
2024-01-06T12:30:36.908Z,10.70
2024-01-06T12:33:04.549Z,11.03
2024-01-06T12:35:31.728Z,11.83
2024-01-06T12:37:58.774Z,14.70
2024-01-06T12:40:25.853Z,14.40
2024-01-06T12:42:52.896Z,13.07
2024-01-06T12:45:20.028Z,12.90
2024-01-06T12:47:47.057Z,12.00
2024-01-06T12:50:15.868Z,11.17
2024-01-06T12:52:43.323Z,10.60
2024-01-06T12:55:10.472Z,10.10
2024-01-06T12:57:37.584Z,9.97
2024-01-06T13:00:07.266Z,10.43
2024-01-06T13:02:34.344Z,10.73
2024-01-06T13:05:01.384Z,10.30
2024-01-06T13:07:28.521Z,10.27
2024-01-06T13:09:56.951Z,10.60
2024-01-06T13:12:25.108Z,10.77
2024-01-06T13:14:53.684Z,11.57
2024-01-06T13:17:20.823Z,11.80
2024-01-06T13:19:47.825Z,11.10
2024-01-06T13:22:15.987Z,11.40
2024-01-06T13:24:43.026Z,11.23
2024-01-06T13:27:10.403Z,11.00
2024-01-06T13:29:37.394Z,11.67
2024-01-06T13:32:06.223Z,11.73
2024-01-06T13:34:33.418Z,11.70
2024-01-06T13:37:00.812Z,11.67
2024-01-06T13:39:27.873Z,12.03
2024-01-06T13:41:54.944Z,11.60
2024-01-06T13:44:23.795Z,11.80
2024-01-06T13:46:52.335Z,11.63
2024-01-06T13:49:20.022Z,12.10
2024-01-06T13:51:47.702Z,10.47
2024-01-06T13:54:17.317Z,12.10
2024-01-06T13:56:45.749Z,11.03
2024-01-06T13:59:12.705Z,10.90
2024-01-06T14:01:40.434Z,11.77
2024-01-06T14:04:08.234Z,12.87
2024-01-06T14:06:35.505Z,13.93
2024-01-06T14:09:02.940Z,12.67
2024-01-06T14:11:31.965Z,13.50
2024-01-06T14:13:59.681Z,12.73
2024-01-06T14:16:26.946Z,12.50
2024-01-06T14:18:54.251Z,13.20
2024-01-06T14:21:21.476Z,12.30
2024-01-06T14:23:50.780Z,11.87
2024-01-06T14:26:25.059Z,13.00
2024-01-06T14:28:52.219Z,17.97
2024-01-06T14:31:19.530Z,20.77
2024-01-06T14:33:46.931Z,22.07
2024-01-06T14:36:14.206Z,19.13
2024-01-06T14:38:41.309Z,16.10
2024-01-06T14:41:08.350Z,14.83
2024-01-06T14:43:35.264Z,14.80
2024-01-06T14:46:02.536Z,15.57
2024-01-06T14:48:29.747Z,14.37
2024-01-06T14:50:56.903Z,13.73
2024-01-06T14:53:23.924Z,13.63
2024-01-06T14:55:50.970Z,13.13
2024-01-06T14:58:17.927Z,12.73
2024-01-06T15:00:45.051Z,11.70
2024-01-06T15:03:12.318Z,12.73
2024-01-06T15:05:42.231Z,12.27
2024-01-06T15:08:09.208Z,11.60
2024-01-06T15:10:36.187Z,11.40
2024-01-06T15:13:04.804Z,12.33
2024-01-06T15:15:31.905Z,13.17
2024-01-06T15:17:59.392Z,12.83
2024-01-06T15:20:26.614Z,12.20
2024-01-06T15:22:53.814Z,11.30
2024-01-06T15:25:20.945Z,11.70
2024-01-06T15:27:48.637Z,19.50
2024-01-06T15:30:17.367Z,16.47
2024-01-06T15:32:44.746Z,13.07
2024-01-06T15:35:11.809Z,12.50
2024-01-06T15:37:38.945Z,11.93
2024-01-06T15:40:06.675Z,11.70
2024-01-06T15:42:33.940Z,11.23
2024-01-06T15:45:01.014Z,11.17
2024-01-06T15:47:28.003Z,11.47
2024-01-06T15:49:55.461Z,11.03
2024-01-06T15:52:22.971Z,11.63
2024-01-06T15:54:50.758Z,12.47
2024-01-06T15:57:17.871Z,12.17
2024-01-06T15:59:45.412Z,12.77
2024-01-06T16:02:12.545Z,12.23
2024-01-06T16:04:39.553Z,11.13
2024-01-06T16:07:07.184Z,10.60
2024-01-06T16:09:34.419Z,10.63
2024-01-06T16:12:01.431Z,10.87
2024-01-06T16:14:31.462Z,12.33
2024-01-06T16:17:02.729Z,11.27
2024-01-06T16:19:29.948Z,12.20
2024-01-06T16:22:07.648Z,12.27
2024-01-06T16:24:42.208Z,12.43
2024-01-06T16:27:09.260Z,12.90
2024-01-06T16:29:37.258Z,12.70
2024-01-06T16:32:04.551Z,14.70
2024-01-06T16:34:34.614Z,14.13
2024-01-06T16:37:04.402Z,15.63
2024-01-06T16:39:32.870Z,14.03
2024-01-06T16:42:00.619Z,14.23
2024-01-06T16:44:32.526Z,12.83
2024-01-06T16:47:01.027Z,13.03
2024-01-06T16:49:28.945Z,12.23
2024-01-06T16:51:56.663Z,10.77
2024-01-06T16:54:24.245Z,11.30
2024-01-06T16:56:51.694Z,10.03
2024-01-06T16:59:19.015Z,9.83
2024-01-06T17:01:46.095Z,10.97
2024-01-06T17:04:17.712Z,11.80
2024-01-06T17:06:44.891Z,12.47
2024-01-06T17:09:13.269Z,11.13
2024-01-06T17:11:40.397Z,10.53
2024-01-06T17:14:07.486Z,13.07
2024-01-06T17:16:35.089Z,12.87
2024-01-06T17:19:02.252Z,11.53
2024-01-06T17:21:29.311Z,10.70
2024-01-06T17:23:56.941Z,10.37
2024-01-06T17:26:23.861Z,9.47
2024-01-06T17:28:51.281Z,8.80
2024-01-06T17:31:18.492Z,9.07
2024-01-06T17:33:45.533Z,8.43
2024-01-06T17:36:12.637Z,8.73
2024-01-06T17:38:39.862Z,9.30
2024-01-06T17:41:08.309Z,9.77
2024-01-06T17:43:35.508Z,9.53
2024-01-06T17:46:02.605Z,8.30
2024-01-06T17:48:29.833Z,9.13
2024-01-06T17:50:56.881Z,10.47
2024-01-06T17:53:26.508Z,9.97
2024-01-06T17:55:53.485Z,10.23
2024-01-06T17:58:20.425Z,8.80
2024-01-06T18:00:47.430Z,8.10
2024-01-06T18:03:14.436Z,7.97
2024-01-06T18:05:41.909Z,9.10
2024-01-06T18:08:08.943Z,10.10
2024-01-06T18:10:36.099Z,9.43
2024-01-06T18:13:04.028Z,9.40
2024-01-06T18:15:34.034Z,9.80
2024-01-06T18:18:02.280Z,9.50
2024-01-06T18:20:29.293Z,9.93
2024-01-06T18:22:56.276Z,9.17
2024-01-06T18:25:26.419Z,9.40
2024-01-06T18:27:56.535Z,9.70
2024-01-06T18:30:23.583Z,9.93
2024-01-06T18:32:51.940Z,10.07
2024-01-06T18:35:18.898Z,11.20
2024-01-06T18:37:46.373Z,10.90
2024-01-06T18:40:13.479Z,11.47
2024-01-06T18:42:40.489Z,11.53
2024-01-06T18:45:07.735Z,11.17
2024-01-06T18:47:35.004Z,9.17
2024-01-06T18:50:02.633Z,8.90
2024-01-06T18:52:30.938Z,7.87
2024-01-06T18:54:57.927Z,7.87
2024-01-06T18:57:25.582Z,8.50
2024-01-06T18:59:52.968Z,7.70
2024-01-06T19:02:20.004Z,9.73
2024-01-06T19:04:50.199Z,9.40
2024-01-06T19:07:19.256Z,9.80
2024-01-06T19:09:46.407Z,8.40
2024-01-06T19:12:13.640Z,8.17
2024-01-06T19:14:40.872Z,8.50
2024-01-06T19:17:07.868Z,7.93
2024-01-06T19:19:39.983Z,8.83
2024-01-06T19:22:08.019Z,8.63
2024-01-06T19:24:42.798Z,8.40
2024-01-06T19:27:11.301Z,8.20
2024-01-06T19:29:43.789Z,9.53
2024-01-06T19:32:11.306Z,8.60
2024-01-06T19:34:39.138Z,8.40
2024-01-06T19:37:06.299Z,7.90
2024-01-06T19:39:33.379Z,7.60
2024-01-06T19:42:00.356Z,8.40
2024-01-06T19:44:27.342Z,8.77
2024-01-06T19:46:56.719Z,9.67
2024-01-06T19:49:23.810Z,9.40
2024-01-06T19:51:51.535Z,7.47
2024-01-06T19:54:18.825Z,6.60
2024-01-06T19:56:45.851Z,6.67
2024-01-06T19:59:13.491Z,6.47
2024-01-06T20:01:40.793Z,6.77
2024-01-06T20:04:08.054Z,8.50
2024-01-06T20:06:35.764Z,7.53
2024-01-06T20:09:04.186Z,6.93
2024-01-06T20:11:31.207Z,6.80
2024-01-06T20:13:59.047Z,8.00
2024-01-06T20:16:28.508Z,7.00
2024-01-06T20:18:55.492Z,9.10
2024-01-06T20:21:22.900Z,9.87
2024-01-06T20:23:49.930Z,9.10
2024-01-06T20:26:18.370Z,9.30
2024-01-06T20:28:50.531Z,10.40
2024-01-06T20:31:18.915Z,10.00
2024-01-06T20:33:46.956Z,10.20
2024-01-06T20:36:15.511Z,10.27
2024-01-06T20:38:42.927Z,10.30
2024-01-06T20:41:13.007Z,10.17
2024-01-06T20:43:40.362Z,9.97
2024-01-06T20:46:10.283Z,10.20
2024-01-06T20:48:37.888Z,9.40
2024-01-06T20:51:06.102Z,9.43
2024-01-06T20:53:35.276Z,9.43
2024-01-06T20:56:05.698Z,9.77
2024-01-06T20:58:32.702Z,9.23
2024-01-06T21:00:59.697Z,9.07
2024-01-06T21:03:26.816Z,9.70
2024-01-06T21:05:53.888Z,9.10
2024-01-06T21:08:20.846Z,9.20
2024-01-06T21:10:50.543Z,9.50
2024-01-06T21:13:17.530Z,9.90
2024-01-06T21:15:44.571Z,9.30
2024-01-06T21:18:12.177Z,9.27
2024-01-06T21:20:40.158Z,8.73
2024-01-06T21:23:07.186Z,8.77
2024-01-06T21:25:34.611Z,8.40
2024-01-06T21:28:02.125Z,8.40
2024-01-06T21:30:29.337Z,8.67
2024-01-06T21:33:01.902Z,8.60
2024-01-06T21:35:32.625Z,8.27
2024-01-06T21:38:00.235Z,8.37
2024-01-06T21:40:28.091Z,8.60
2024-01-06T21:42:55.823Z,8.30
2024-01-06T21:45:22.961Z,8.23
2024-01-06T21:47:54.236Z,7.93
2024-01-06T21:50:21.291Z,7.70
2024-01-06T21:52:48.379Z,7.70
2024-01-06T21:55:15.298Z,8.00
2024-01-06T21:57:42.298Z,7.57
2024-01-06T22:00:15.022Z,7.63
2024-01-06T22:02:43.872Z,8.33
2024-01-06T22:05:10.912Z,7.50
2024-01-06T22:07:38.766Z,7.40
2024-01-06T22:10:06.285Z,7.17
2024-01-06T22:12:33.562Z,6.90
2024-01-06T22:15:00.717Z,7.30
2024-01-06T22:17:27.766Z,7.60
2024-01-06T22:19:54.909Z,7.37
2024-01-06T22:22:21.918Z,7.23
2024-01-06T22:24:48.907Z,7.33
2024-01-06T22:27:16.586Z,7.20
2024-01-06T22:29:45.701Z,7.03
2024-01-06T22:32:13.781Z,7.40
2024-01-06T22:34:47.523Z,7.20
2024-01-06T22:37:15.111Z,8.10
2024-01-06T22:39:44.893Z,6.77
2024-01-06T22:42:12.485Z,7.80
2024-01-06T22:44:41.104Z,7.03
2024-01-06T22:47:08.090Z,7.37
2024-01-06T22:49:35.316Z,7.23
2024-01-06T22:52:03.819Z,7.40
2024-01-06T22:54:33.693Z,7.10
2024-01-06T22:57:01.903Z,7.33
2024-01-06T22:59:28.846Z,7.10
2024-01-06T23:01:55.909Z,6.80
2024-01-06T23:04:23.141Z,7.13
2024-01-06T23:06:50.501Z,6.70
2024-01-06T23:09:17.519Z,6.70
2024-01-06T23:11:45.105Z,7.37
2024-01-06T23:14:12.258Z,6.97
2024-01-06T23:16:39.392Z,6.63
2024-01-06T23:19:07.116Z,6.90
2024-01-06T23:21:34.110Z,6.50
2024-01-06T23:24:01.267Z,6.53
2024-01-06T23:26:28.278Z,6.60
2024-01-06T23:28:55.366Z,6.90
2024-01-06T23:31:22.721Z,7.07
2024-01-06T23:33:49.968Z,6.90
2024-01-06T23:36:17.158Z,6.80
2024-01-06T23:38:44.247Z,5.93
2024-01-06T23:41:11.173Z,6.10
2024-01-06T23:43:38.137Z,6.20
2024-01-06T23:46:05.215Z,6.17
2024-01-06T23:48:32.270Z,6.60
2024-01-06T23:50:59.409Z,6.20
2024-01-06T23:53:26.332Z,6.40
2024-01-06T23:55:53.351Z,6.17
2024-01-06T23:58:20.832Z,6.10
